sensor_id;sensor_type;location;lat;lon;timestamp;pressure;altitude;pressure_sealevel;temperature;humidity
75447;BME280;64024;55.820;37.574;2023-05-07T00:02:06;99829.50;;;16.84;33.76
75447;BME280;64024;55.820;37.574;2023-05-07T00:04:33;99818.41;;;16.81;34.03
75447;BME280;64024;55.820;37.574;2023-05-07T00:07:02;99831.47;;;16.77;34.20
75447;BME280;64024;55.820;37.574;2023-05-07T00:09:28;99826.34;;;16.76;34.28
75447;BME280;64024;55.820;37.574;2023-05-07T00:11:53;99831.13;;;16.74;34.49
75447;BME280;64024;55.820;37.574;2023-05-07T00:14:19;99833.22;;;16.72;34.63
75447;BME280;64024;55.820;37.574;2023-05-07T00:16:45;99832.63;;;16.70;34.79
75447;BME280;64024;55.820;37.574;2023-05-07T00:19:11;99824.81;;;16.68;34.79
75447;BME280;64024;55.820;37.574;2023-05-07T00:21:36;99829.38;;;16.68;34.84
75447;BME280;64024;55.820;37.574;2023-05-07T00:24:02;99827.72;;;16.66;35.12
75447;BME280;64024;55.820;37.574;2023-05-07T00:26:28;99831.44;;;16.65;35.25
75447;BME280;64024;55.820;37.574;2023-05-07T00:28:54;99831.44;;;16.65;35.42
75447;BME280;64024;55.820;37.574;2023-05-07T00:31:19;99834.38;;;16.64;35.40
75447;BME280;64024;55.820;37.574;2023-05-07T00:33:45;99835.44;;;16.63;35.23
75447;BME280;64024;55.820;37.574;2023-05-07T00:36:11;99836.47;;;16.62;35.54
75447;BME280;64024;55.820;37.574;2023-05-07T00:38:37;99839.13;;;16.62;35.46
75447;BME280;64024;55.820;37.574;2023-05-07T00:41:03;99842.63;;;16.62;35.67
75447;BME280;64024;55.820;37.574;2023-05-07T00:43:28;99841.00;;;16.61;35.68
75447;BME280;64024;55.820;37.574;2023-05-07T00:45:55;99837.50;;;16.61;35.87
75447;BME280;64024;55.820;37.574;2023-05-07T00:48:21;99838.31;;;16.61;35.85
75447;BME280;64024;55.820;37.574;2023-05-07T00:50:46;99838.56;;;16.60;35.97
75447;BME280;64024;55.820;37.574;2023-05-07T00:53:13;99840.19;;;16.61;35.87
75447;BME280;64024;55.820;37.574;2023-05-07T00:55:39;99837.28;;;16.62;36.09
75447;BME280;64024;55.820;37.574;2023-05-07T00:58:05;99838.94;;;16.63;35.94
75447;BME280;64024;55.820;37.574;2023-05-07T01:00:31;99834.13;;;16.65;36.21
75447;BME280;64024;55.820;37.574;2023-05-07T01:02:57;99830.63;;;16.65;36.14
75447;BME280;64024;55.820;37.574;2023-05-07T01:05:24;99827.13;;;16.64;36.30
75447;BME280;64024;55.820;37.574;2023-05-07T01:07:52;99834.94;;;16.66;36.16
75447;BME280;64024;55.820;37.574;2023-05-07T01:10:19;99830.63;;;16.65;36.24
75447;BME280;64024;55.820;37.574;2023-05-07T01:12:46;99830.63;;;16.65;36.21
75447;BME280;64024;55.820;37.574;2023-05-07T01:15:14;99840.56;;;16.64;36.16
75447;BME280;64024;55.820;37.574;2023-05-07T01:17:41;99837.88;;;16.64;36.19
75447;BME280;64024;55.820;37.574;2023-05-07T01:20:08;99838.13;;;16.63;36.42
75447;BME280;64024;55.820;37.574;2023-05-07T01:22:34;99836.47;;;16.62;36.26
75447;BME280;64024;55.820;37.574;2023-05-07T01:25:03;99851.75;;;16.61;36.17
75447;BME280;64024;55.820;37.574;2023-05-07T01:27:29;99846.38;;;16.61;36.46
75447;BME280;64024;55.820;37.574;2023-05-07T01:29:54;99845.56;;;16.61;36.44
75447;BME280;64024;55.820;37.574;2023-05-07T01:32:29;99850.94;;;16.61;36.69
75447;BME280;64024;55.820;37.574;2023-05-07T01:34:58;99855.50;;;16.60;36.31
75447;BME280;64024;55.820;37.574;2023-05-07T01:37:26;99850.13;;;16.60;36.36
75447;BME280;64024;55.820;37.574;2023-05-07T01:39:52;99856.53;;;16.59;36.64
75447;BME280;64024;55.820;37.574;2023-05-07T01:42:18;99867.28;;;16.59;36.38
75447;BME280;64024;55.820;37.574;2023-05-07T01:44:44;99862.72;;;16.60;36.54
75447;BME280;64024;55.820;37.574;2023-05-07T01:47:11;99862.72;;;16.60;36.69
75447;BME280;64024;55.820;37.574;2023-05-07T01:49:38;99865.16;;;16.61;36.68
75447;BME280;64024;55.820;37.574;2023-05-07T01:52:04;99865.97;;;16.62;36.67
75447;BME280;64024;55.820;37.574;2023-05-07T01:54:30;99871.13;;;16.63;36.69
75447;BME280;64024;55.820;37.574;2023-05-07T01:56:58;99866.34;;;16.65;37.09
75447;BME280;64024;55.820;37.574;2023-05-07T01:59:25;99867.97;;;16.66;36.90
75447;BME280;64024;55.820;37.574;2023-05-07T02:01:51;99869.38;;;16.69;36.86
75447;BME280;64024;55.820;37.574;2023-05-07T02:04:17;99879.66;;;16.72;37.12
75447;BME280;64024;55.820;37.574;2023-05-07T02:06:43;99870.34;;;16.75;36.99
75447;BME280;64024;55.820;37.574;2023-05-07T02:09:08;99871.75;;;16.77;36.95
75447;BME280;64024;55.820;37.574;2023-05-07T02:11:34;99875.59;;;16.81;37.04
75447;BME280;64024;55.820;37.574;2023-05-07T02:14:00;99881.31;;;16.85;37.18
75447;BME280;64024;55.820;37.574;2023-05-07T02:16:25;99880.88;;;16.88;36.81
75447;BME280;64024;55.820;37.574;2023-05-07T02:18:51;99889.25;;;16.92;36.97
75447;BME280;64024;55.820;37.574;2023-05-07T02:21:17;99893.94;;;16.96;36.88
75447;BME280;64024;55.820;37.574;2023-05-07T02:23:42;99889.94;;;16.99;36.78
75447;BME280;64024;55.820;37.574;2023-05-07T02:26:09;99895.69;;;17.02;36.81
75447;BME280;64024;55.820;37.574;2023-05-07T02:28:35;99896.03;;;17.06;36.94
75447;BME280;64024;55.820;37.574;2023-05-07T02:31:04;99895.31;;;17.10;36.93
75447;BME280;64024;55.820;37.574;2023-05-07T02:33:29;99893.81;;;17.14;36.95
75447;BME280;64024;55.820;37.574;2023-05-07T02:35:56;99900.34;;;17.19;36.83
75447;BME280;64024;55.820;37.574;2023-05-07T02:38:22;99912.00;;;17.24;36.91
75447;BME280;64024;55.820;37.574;2023-05-07T02:40:48;99903.47;;;17.27;36.86
75447;BME280;64024;55.820;37.574;2023-05-07T02:43:13;99907.91;;;17.33;36.88
75447;BME280;64024;55.820;37.574;2023-05-07T02:45:39;99912.81;;;17.36;36.83
75447;BME280;64024;55.820;37.574;2023-05-07T02:48:05;99914.56;;;17.43;36.91
75447;BME280;64024;55.820;37.574;2023-05-07T02:50:33;99920.03;;;17.48;36.92
75447;BME280;64024;55.820;37.574;2023-05-07T02:52:59;99919.56;;;17.51;36.78
75447;BME280;64024;55.820;37.574;2023-05-07T02:55:24;99923.19;;;17.56;36.94
75447;BME280;64024;55.820;37.574;2023-05-07T02:57:50;99914.19;;;17.62;36.90
75447;BME280;64024;55.820;37.574;2023-05-07T03:00:17;99915.31;;;17.67;36.67
75447;BME280;64024;55.820;37.574;2023-05-07T03:02:44;99918.13;;;17.72;36.69
75447;BME280;64024;55.820;37.574;2023-05-07T03:05:10;99927.13;;;17.77;36.62
75447;BME280;64024;55.820;37.574;2023-05-07T03:07:37;99926.41;;;17.82;36.57
75447;BME280;64024;55.820;37.574;2023-05-07T03:10:04;99929.19;;;17.87;36.43
75447;BME280;64024;55.820;37.574;2023-05-07T03:12:30;99923.31;;;18.02;36.37
75447;BME280;64024;55.820;37.574;2023-05-07T03:14:56;99928.44;;;18.03;36.37
75447;BME280;64024;55.820;37.574;2023-05-07T03:17:22;99936.03;;;18.06;36.39
75447;BME280;64024;55.820;37.574;2023-05-07T03:19:47;99939.88;;;18.10;36.39
75447;BME280;64024;55.820;37.574;2023-05-07T03:22:14;99936.47;;;18.15;36.39
75447;BME280;64024;55.820;37.574;2023-05-07T03:24:40;99940.91;;;18.21;36.44
75447;BME280;64024;55.820;37.574;2023-05-07T03:27:05;99948.25;;;18.26;36.54
75447;BME280;64024;55.820;37.574;2023-05-07T03:29:31;99941.88;;;18.32;36.50
75447;BME280;64024;55.820;37.574;2023-05-07T03:31:57;99946.31;;;18.38;36.58
75447;BME280;64024;55.820;37.574;2023-05-07T03:34:22;99943.72;;;18.43;36.59
75447;BME280;64024;55.820;37.574;2023-05-07T03:36:49;99947.31;;;18.49;36.52
75447;BME280;64024;55.820;37.574;2023-05-07T03:39:15;99950.66;;;18.56;36.56
75447;BME280;64024;55.820;37.574;2023-05-07T03:41:42;99947.25;;;18.60;36.45
75447;BME280;64024;55.820;37.574;2023-05-07T03:44:08;99947.09;;;18.67;36.40
75447;BME280;64024;55.820;37.574;2023-05-07T03:46:34;99944.50;;;18.72;36.32
75447;BME280;64024;55.820;37.574;2023-05-07T03:49:00;99947.28;;;18.77;36.52
75447;BME280;64024;55.820;37.574;2023-05-07T03:51:25;99949.00;;;18.83;36.24
75447;BME280;64024;55.820;37.574;2023-05-07T03:53:52;99952.59;;;18.89;35.95
75447;BME280;64024;55.820;37.574;2023-05-07T03:56:19;99951.03;;;18.93;36.17
75447;BME280;64024;55.820;37.574;2023-05-07T03:58:45;99964.56;;;18.98;36.03
75447;BME280;64024;55.820;37.574;2023-05-07T04:01:10;99951.19;;;19.03;35.95
75447;BME280;64024;55.820;37.574;2023-05-07T04:03:36;99960.19;;;19.09;36.13
75447;BME280;64024;55.820;37.574;2023-05-07T04:06:02;99960.00;;;19.16;36.03
75447;BME280;64024;55.820;37.574;2023-05-07T04:08:28;99966.28;;;19.21;35.95
75447;BME280;64024;55.820;37.574;2023-05-07T04:10:58;99972.56;;;19.27;35.71
75447;BME280;64024;55.820;37.574;2023-05-07T04:13:24;99971.59;;;19.33;35.58
75447;BME280;64024;55.820;37.574;2023-05-07T04:15:51;99968.97;;;19.38;35.64
75447;BME280;64024;55.820;37.574;2023-05-07T04:18:17;99976.03;;;19.44;35.60
75447;BME280;64024;55.820;37.574;2023-05-07T04:20:43;99979.66;;;19.50;35.42
75447;BME280;64024;55.820;37.574;2023-05-07T04:23:08;99979.72;;;19.55;35.41
75447;BME280;64024;55.820;37.574;2023-05-07T04:25:34;99967.09;;;19.60;35.25
75447;BME280;64024;55.820;37.574;2023-05-07T04:28:00;99976.13;;;19.66;35.56
75447;BME280;64024;55.820;37.574;2023-05-07T04:30:26;99992.38;;;19.71;34.91
75447;BME280;64024;55.820;37.574;2023-05-07T04:32:52;99988.91;;;19.76;35.19
75447;BME280;64024;55.820;37.574;2023-05-07T04:35:18;99981.97;;;19.80;35.03
75447;BME280;64024;55.820;37.574;2023-05-07T04:37:43;99993.63;;;19.85;35.10
75447;BME280;64024;55.820;37.574;2023-05-07T04:40:09;99983.72;;;19.91;34.93
75447;BME280;64024;55.820;37.574;2023-05-07T04:42:35;99989.41;;;19.95;34.93
75447;BME280;64024;55.820;37.574;2023-05-07T04:45:01;99976.22;;;19.98;34.73
75447;BME280;64024;55.820;37.574;2023-05-07T04:47:27;99993.56;;;20.02;34.74
75447;BME280;64024;55.820;37.574;2023-05-07T04:49:52;99992.25;;;20.05;34.29
75447;BME280;64024;55.820;37.574;2023-05-07T04:52:18;99986.34;;;20.08;34.25
75447;BME280;64024;55.820;37.574;2023-05-07T04:54:44;99992.28;;;20.10;34.04
75447;BME280;64024;55.820;37.574;2023-05-07T04:57:10;99997.47;;;20.11;33.95
75447;BME280;64024;55.820;37.574;2023-05-07T04:59:35;99994.22;;;20.15;34.15
75447;BME280;64024;55.820;37.574;2023-05-07T05:02:01;99990.50;;;20.16;34.00
75447;BME280;64024;55.820;37.574;2023-05-07T05:04:26;99991.03;;;20.18;33.96
75447;BME280;64024;55.820;37.574;2023-05-07T05:06:52;99976.47;;;20.19;33.90
75447;BME280;64024;55.820;37.574;2023-05-07T05:09:18;99992.44;;;20.20;33.71
75447;BME280;64024;55.820;37.574;2023-05-07T05:11:44;99995.69;;;20.22;33.73
75447;BME280;64024;55.820;37.574;2023-05-07T05:14:10;99992.75;;;20.24;33.79
75447;BME280;64024;55.820;37.574;2023-05-07T05:16:36;99993.28;;;20.26;33.94
75447;BME280;64024;55.820;37.574;2023-05-07T05:19:02;99999.25;;;20.28;33.91
75447;BME280;64024;55.820;37.574;2023-05-07T05:21:28;99999.81;;;20.30;33.83
75447;BME280;64024;55.820;37.574;2023-05-07T05:23:53;99994.97;;;20.32;33.96
75447;BME280;64024;55.820;37.574;2023-05-07T05:26:19;99997.44;;;20.33;33.64
75447;BME280;64024;55.820;37.574;2023-05-07T05:28:46;100002.56;;;20.35;33.71
75447;BME280;64024;55.820;37.574;2023-05-07T05:31:12;99999.63;;;20.36;33.66
75447;BME280;64024;55.820;37.574;2023-05-07T05:33:39;100004.75;;;20.38;33.53
75447;BME280;64024;55.820;37.574;2023-05-07T05:36:06;100003.69;;;20.39;33.54
75447;BME280;64024;55.820;37.574;2023-05-07T05:38:34;100011.84;;;20.44;33.36
75447;BME280;64024;55.820;37.574;2023-05-07T05:41:01;100024.28;;;20.45;33.34
75447;BME280;64024;55.820;37.574;2023-05-07T05:43:26;100020.25;;;20.48;33.14
75447;BME280;64024;55.820;37.574;2023-05-07T05:45:52;100000.06;;;20.50;33.09
75447;BME280;64024;55.820;37.574;2023-05-07T05:48:17;100020.59;;;20.51;32.67
75447;BME280;64024;55.820;37.574;2023-05-07T05:50:43;100030.06;;;20.54;32.80
75447;BME280;64024;55.820;37.574;2023-05-07T05:53:09;100025.81;;;20.58;32.70
75447;BME280;64024;55.820;37.574;2023-05-07T05:55:35;100025.53;;;20.59;32.56
75447;BME280;64024;55.820;37.574;2023-05-07T05:58:01;100015.53;;;20.60;32.41
75447;BME280;64024;55.820;37.574;2023-05-07T06:00:27;100011.75;;;20.61;32.33
75447;BME280;64024;55.820;37.574;2023-05-07T06:02:53;100004.25;;;20.63;32.21
75447;BME280;64024;55.820;37.574;2023-05-07T06:05:19;100019.63;;;20.63;32.24
75447;BME280;64024;55.820;37.574;2023-05-07T06:07:45;100021.25;;;20.64;32.08
75447;BME280;64024;55.820;37.574;2023-05-07T06:10:10;100022.88;;;20.65;31.98
75447;BME280;64024;55.820;37.574;2023-05-07T06:12:36;100026.38;;;20.65;31.87
75447;BME280;64024;55.820;37.574;2023-05-07T06:15:02;100029.09;;;20.65;31.73
75447;BME280;64024;55.820;37.574;2023-05-07T06:17:27;100025.56;;;20.65;31.54
75447;BME280;64024;55.820;37.574;2023-05-07T06:19:53;100036.38;;;20.65;31.56
75447;BME280;64024;55.820;37.574;2023-05-07T06:22:19;100024.53;;;20.66;31.39
75447;BME280;64024;55.820;37.574;2023-05-07T06:24:45;100022.66;;;20.66;31.31
75447;BME280;64024;55.820;37.574;2023-05-07T06:27:11;100030.75;;;20.66;31.08
75447;BME280;64024;55.820;37.574;2023-05-07T06:29:37;100034.25;;;20.67;31.21
75447;BME280;64024;55.820;37.574;2023-05-07T06:32:07;100021.84;;;20.66;31.28
75447;BME280;64024;55.820;37.574;2023-05-07T06:34:33;100021.56;;;20.67;31.57
75447;BME280;64024;55.820;37.574;2023-05-07T06:36:58;100021.56;;;20.67;31.39
75447;BME280;64024;55.820;37.574;2023-05-07T06:39:24;100037.78;;;20.67;31.24
75447;BME280;64024;55.820;37.574;2023-05-07T06:41:50;100038.59;;;20.68;31.25
75447;BME280;64024;55.820;37.574;2023-05-07T06:44:15;100050.19;;;20.68;31.39
75447;BME280;64024;55.820;37.574;2023-05-07T06:46:41;100028.34;;;20.70;31.55
75447;BME280;64024;55.820;37.574;2023-05-07T06:49:07;100022.94;;;20.70;31.75
75447;BME280;64024;55.820;37.574;2023-05-07T06:51:33;100013.78;;;20.71;31.31
75447;BME280;64024;55.820;37.574;2023-05-07T06:53:59;100039.72;;;20.72;31.61
75447;BME280;64024;55.820;37.574;2023-05-07T06:56:24;100037.81;;;20.72;31.61
75447;BME280;64024;55.820;37.574;2023-05-07T06:58:50;100044.03;;;20.73;31.40
75447;BME280;64024;55.820;37.574;2023-05-07T07:01:16;100035.13;;;20.72;31.54
75447;BME280;64024;55.820;37.574;2023-05-07T07:03:42;100028.63;;;20.73;31.28
75447;BME280;64024;55.820;37.574;2023-05-07T07:06:07;100016.78;;;20.74;31.30
75447;BME280;64024;55.820;37.574;2023-05-07T07:08:33;100025.69;;;20.75;31.26
75447;BME280;64024;55.820;37.574;2023-05-07T07:11:00;100028.41;;;20.75;31.23
75447;BME280;64024;55.820;37.574;2023-05-07T07:13:25;100035.41;;;20.76;31.26
75447;BME280;64024;55.820;37.574;2023-05-07T07:15:52;100028.41;;;20.75;31.14
75447;BME280;64024;55.820;37.574;2023-05-07T07:18:18;100018.41;;;20.75;30.92
75447;BME280;64024;55.820;37.574;2023-05-07T07:20:44;100056.22;;;20.75;30.96
75447;BME280;64024;55.820;37.574;2023-05-07T07:23:10;100041.63;;;20.76;30.87
75447;BME280;64024;55.820;37.574;2023-05-07T07:25:35;100028.13;;;20.76;30.98
75447;BME280;64024;55.820;37.574;2023-05-07T07:28:01;100033.53;;;20.76;31.05
75447;BME280;64024;55.820;37.574;2023-05-07T07:30:27;100036.22;;;20.76;30.90
75447;BME280;64024;55.820;37.574;2023-05-07T07:32:52;100038.94;;;20.76;31.03
75447;BME280;64024;55.820;37.574;2023-05-07T07:35:19;100061.34;;;20.77;30.89
75447;BME280;64024;55.820;37.574;2023-05-07T07:37:44;100047.84;;;20.77;31.05
75447;BME280;64024;55.820;37.574;2023-05-07T07:40:11;100037.03;;;20.77;31.04
75447;BME280;64024;55.820;37.574;2023-05-07T07:42:37;100027.91;;;20.78;31.20
75447;BME280;64024;55.820;37.574;2023-05-07T07:45:03;100040.31;;;20.79;31.47
75447;BME280;64024;55.820;37.574;2023-05-07T07:47:28;100025.75;;;20.80;31.12
75447;BME280;64024;55.820;37.574;2023-05-07T07:49:55;100026.53;;;20.80;31.17
75447;BME280;64024;55.820;37.574;2023-05-07T07:52:20;100020.06;;;20.81;30.81
75447;BME280;64024;55.820;37.574;2023-05-07T07:54:46;100031.72;;;20.82;30.80
75447;BME280;64024;55.820;37.574;2023-05-07T07:57:12;100017.94;;;20.83;30.71
75447;BME280;64024;55.820;37.574;2023-05-07T07:59:37;100024.16;;;20.84;30.79
75447;BME280;64024;55.820;37.574;2023-05-07T08:02:03;100020.38;;;20.85;30.80
75447;BME280;64024;55.820;37.574;2023-05-07T08:04:29;100024.72;;;20.86;30.77
75447;BME280;64024;55.820;37.574;2023-05-07T08:06:56;100030.94;;;20.87;30.72
75447;BME280;64024;55.820;37.574;2023-05-07T08:09:21;100019.06;;;20.88;30.63
75447;BME280;64024;55.820;37.574;2023-05-07T08:11:47;100023.38;;;20.89;30.51
75447;BME280;64024;55.820;37.574;2023-05-07T08:14:13;100026.91;;;20.89;30.50
75447;BME280;64024;55.820;37.574;2023-05-07T08:16:41;100029.59;;;20.89;30.31
75447;BME280;64024;55.820;37.574;2023-05-07T08:19:06;100031.25;;;20.90;30.68
75447;BME280;64024;55.820;37.574;2023-05-07T08:21:32;100011.50;;;20.90;30.30
75447;BME280;64024;55.820;37.574;2023-05-07T08:23:57;100024.75;;;20.91;30.08
75447;BME280;64024;55.820;37.574;2023-05-07T08:26:23;100023.94;;;20.91;29.96
75447;BME280;64024;55.820;37.574;2023-05-07T08:28:49;100030.97;;;20.92;29.77
75447;BME280;64024;55.820;37.574;2023-05-07T08:31:15;100043.69;;;20.91;29.31
75447;BME280;64024;55.820;37.574;2023-05-07T08:33:41;100032.84;;;20.86;27.70
75447;BME280;64024;55.820;37.574;2023-05-07T08:36:07;100021.09;;;20.75;26.21
75447;BME280;64024;55.820;37.574;2023-05-07T08:38:32;100036.91;;;20.62;25.68
75447;BME280;64024;55.820;37.574;2023-05-07T08:40:58;100031.88;;;20.48;25.19
75447;BME280;64024;55.820;37.574;2023-05-07T08:43:26;100025.56;;;20.38;24.71
75447;BME280;64024;55.820;37.574;2023-05-07T08:45:54;100031.56;;;20.23;24.49
75447;BME280;64024;55.820;37.574;2023-05-07T08:48:25;100035.69;;;20.03;23.80
75447;BME280;64024;55.820;37.574;2023-05-07T08:50:53;100028.25;;;19.94;24.00
75447;BME280;64024;55.820;37.574;2023-05-07T08:53:20;100027.13;;;19.90;24.06
75447;BME280;64024;55.820;37.574;2023-05-07T08:55:46;100015.88;;;19.98;24.53
75447;BME280;64024;55.820;37.574;2023-05-07T08:58:12;100023.13;;;19.92;24.92
75447;BME280;64024;55.820;37.574;2023-05-07T09:00:38;100017.13;;;19.90;25.21
75447;BME280;64024;55.820;37.574;2023-05-07T09:03:05;100020.91;;;19.89;25.65
75447;BME280;64024;55.820;37.574;2023-05-07T09:05:31;100036.59;;;19.92;26.01
75447;BME280;64024;55.820;37.574;2023-05-07T09:07:59;100030.94;;;19.94;26.15
75447;BME280;64024;55.820;37.574;2023-05-07T09:10:26;100038.56;;;19.97;26.69
75447;BME280;64024;55.820;37.574;2023-05-07T09:12:51;100031.00;;;19.99;26.15
75447;BME280;64024;55.820;37.574;2023-05-07T09:15:18;100026.94;;;19.96;25.48
75447;BME280;64024;55.820;37.574;2023-05-07T09:17:44;100005.03;;;19.93;25.01
75447;BME280;64024;55.820;37.574;2023-05-07T09:20:10;100023.94;;;19.93;25.10
75447;BME280;64024;55.820;37.574;2023-05-07T09:22:37;100020.16;;;19.94;25.43
75447;BME280;64024;55.820;37.574;2023-05-07T09:25:03;100027.75;;;19.97;25.70
75447;BME280;64024;55.820;37.574;2023-05-07T09:27:30;100019.41;;;19.98;26.05
75447;BME280;64024;55.820;37.574;2023-05-07T09:29:56;100035.47;;;20.10;26.18
75447;BME280;64024;55.820;37.574;2023-05-07T09:32:22;100030.88;;;20.10;26.18
75447;BME280;64024;55.820;37.574;2023-05-07T09:34:47;100023.06;;;20.09;25.99
75447;BME280;64024;55.820;37.574;2023-05-07T09:37:13;100030.03;;;20.05;24.82
75447;BME280;64024;55.820;37.574;2023-05-07T09:39:42;100025.13;;;20.02;24.84
75447;BME280;64024;55.820;37.574;2023-05-07T09:42:08;100016.22;;;20.01;25.05
75447;BME280;64024;55.820;37.574;2023-05-07T09:44:34;100015.94;;;20.03;25.43
75447;BME280;64024;55.820;37.574;2023-05-07T09:47:04;100018.97;;;20.06;25.70
75447;BME280;64024;55.820;37.574;2023-05-07T09:49:33;100009.56;;;20.09;26.12
75447;BME280;64024;55.820;37.574;2023-05-07T09:52:01;100005.56;;;20.11;26.49
75447;BME280;64024;55.820;37.574;2023-05-07T09:54:27;99999.41;;;20.16;26.43
75447;BME280;64024;55.820;37.574;2023-05-07T09:56:56;100008.03;;;20.18;26.74
75447;BME280;64024;55.820;37.574;2023-05-07T09:59:22;100007.56;;;20.21;26.98
75447;BME280;64024;55.820;37.574;2023-05-07T10:01:48;100002.47;;;20.25;26.82
75447;BME280;64024;55.820;37.574;2023-05-07T10:04:15;99991.41;;;20.26;26.82
75447;BME280;64024;55.820;37.574;2023-05-07T10:06:42;99993.84;;;20.28;27.05
75447;BME280;64024;55.820;37.574;2023-05-07T10:09:09;99986.88;;;20.32;27.13
75447;BME280;64024;55.820;37.574;2023-05-07T10:11:37;99993.38;;;20.36;27.19
75447;BME280;64024;55.820;37.574;2023-05-07T10:14:03;99986.69;;;20.39;27.12
75447;BME280;64024;55.820;37.574;2023-05-07T10:16:32;99979.97;;;20.41;27.43
75447;BME280;64024;55.820;37.574;2023-05-07T10:19:05;99985.69;;;20.45;27.35
75447;BME280;64024;55.820;37.574;2023-05-07T10:21:36;99998.44;;;20.49;27.58
75447;BME280;64024;55.820;37.574;2023-05-07T10:24:08;99996.06;;;20.53;27.74
75447;BME280;64024;55.820;37.574;2023-05-07T10:26:45;99992.81;;;20.56;28.03
75447;BME280;64024;55.820;37.574;2023-05-07T10:29:37;99993.13;;;20.59;28.29
75447;BME280;64024;55.820;37.574;2023-05-07T10:32:30;99989.13;;;20.62;28.32
75447;BME280;64024;55.820;37.574;2023-05-07T10:35:02;99991.28;;;20.65;28.24
75447;BME280;64024;55.820;37.574;2023-05-07T10:37:29;99984.81;;;20.66;28.00
75447;BME280;64024;55.820;37.574;2023-05-07T10:39:55;99989.69;;;20.69;27.47
75447;BME280;64024;55.820;37.574;2023-05-07T10:42:22;99987.56;;;20.71;27.41
75447;BME280;64024;55.820;37.574;2023-05-07T10:44:48;99992.47;;;20.74;27.13
75447;BME280;64024;55.820;37.574;2023-05-07T10:47:17;99996.53;;;20.77;26.56
75447;BME280;64024;55.820;37.574;2023-05-07T10:52:23;99996.06;;;20.85;25.37
75447;BME280;64024;55.820;37.574;2023-05-07T10:57:50;99999.63;;;20.91;25.64
75447;BME280;64024;55.820;37.574;2023-05-07T11:05:30;100011.59;;;21.00;25.76
75447;BME280;64024;55.820;37.574;2023-05-07T11:07:57;100002.97;;;21.03;25.70
75447;BME280;64024;55.820;37.574;2023-05-07T11:10:55;100014.63;;;21.08;25.09
75447;BME280;64024;55.820;37.574;2023-05-07T11:16:27;100013.06;;;21.13;24.73
75447;BME280;64024;55.820;37.574;2023-05-07T11:18:55;100002.50;;;21.11;25.22
75447;BME280;64024;55.820;37.574;2023-05-07T11:21:40;100011.97;;;21.14;24.73
75447;BME280;64024;55.820;37.574;2023-05-07T11:24:08;100004.94;;;21.13;24.84
75447;BME280;64024;55.820;37.574;2023-05-07T11:26:48;99998.72;;;21.12;24.50
75447;BME280;64024;55.820;37.574;2023-05-07T11:29:15;100002.25;;;21.13;24.64
75447;BME280;64024;55.820;37.574;2023-05-07T11:31:41;100005.75;;;21.13;24.70
75447;BME280;64024;55.820;37.574;2023-05-07T11:34:07;100005.75;;;21.13;24.49
75447;BME280;64024;55.820;37.574;2023-05-07T11:36:33;100004.66;;;21.14;24.11
75447;BME280;64024;55.820;37.574;2023-05-07T11:39:00;100007.13;;;21.16;24.07
75447;BME280;64024;55.820;37.574;2023-05-07T11:41:35;100007.69;;;21.18;23.70
75447;BME280;64024;55.820;37.574;2023-05-07T11:44:02;100027.16;;;21.20;23.69
75447;BME280;64024;55.820;37.574;2023-05-07T11:46:28;100008.25;;;21.20;23.76
75447;BME280;64024;55.820;37.574;2023-05-07T11:48:55;100006.34;;;21.20;23.91
75447;BME280;64024;55.820;37.574;2023-05-07T11:51:23;100006.09;;;21.22;23.54
75447;BME280;64024;55.820;37.574;2023-05-07T11:53:50;100003.38;;;21.22;23.60
75447;BME280;64024;55.820;37.574;2023-05-07T11:56:17;100008.50;;;21.23;23.47
75447;BME280;64024;55.820;37.574;2023-05-07T11:58:44;100008.50;;;21.23;23.22
75447;BME280;64024;55.820;37.574;2023-05-07T12:01:11;100017.47;;;21.24;23.13
75447;BME280;64024;55.820;37.574;2023-05-07T12:03:40;100025.81;;;21.22;22.65
75447;BME280;64024;55.820;37.574;2023-05-07T12:06:08;100016.56;;;21.13;22.20
75447;BME280;64024;55.820;37.574;2023-05-07T12:08:37;100017.00;;;21.00;21.36
75447;BME280;64024;55.820;37.574;2023-05-07T12:11:07;100012.81;;;20.82;21.26
75447;BME280;64024;55.820;37.574;2023-05-07T12:13:33;100024.81;;;20.69;21.28
75447;BME280;64024;55.820;37.574;2023-05-07T12:15:58;100005.06;;;20.64;21.66
75447;BME280;64024;55.820;37.574;2023-05-07T12:18:25;100003.66;;;20.61;21.87
75447;BME280;64024;55.820;37.574;2023-05-07T12:20:51;100003.94;;;20.59;22.17
75447;BME280;64024;55.820;37.574;2023-05-07T12:23:17;100003.94;;;20.59;22.22
75447;BME280;64024;55.820;37.574;2023-05-07T12:25:44;100000.16;;;20.60;22.38
75447;BME280;64024;55.820;37.574;2023-05-07T12:28:13;99996.63;;;20.60;22.66
75447;BME280;64024;55.820;37.574;2023-05-07T12:30:42;100004.50;;;20.62;22.26
75447;BME280;64024;55.820;37.574;2023-05-07T12:33:08;100010.44;;;20.64;22.70
75447;BME280;64024;55.820;37.574;2023-05-07T12:35:39;99995.88;;;20.65;22.65
75447;BME280;64024;55.820;37.574;2023-05-07T12:38:12;100010.75;;;20.67;22.71
75447;BME280;64024;55.820;37.574;2023-05-07T12:40:42;99999.16;;;20.67;22.95
75447;BME280;64024;55.820;37.574;2023-05-07T12:43:27;99998.88;;;20.68;23.04
75447;BME280;64024;55.820;37.574;2023-05-07T12:46:02;99993.25;;;20.70;22.97
75447;BME280;64024;55.820;37.574;2023-05-07T12:48:28;99991.34;;;20.70;23.02
75447;BME280;64024;55.820;37.574;2023-05-07T12:50:55;99995.94;;;20.70;22.95
75447;BME280;64024;55.820;37.574;2023-05-07T12:53:22;99971.63;;;20.70;23.20
75447;BME280;64024;55.820;37.574;2023-05-07T12:55:48;99977.91;;;20.80;23.06
75447;BME280;64024;55.820;37.574;2023-05-07T12:58:16;99986.78;;;20.76;23.22